createdAt,value
2023-04-11T00:01:46.873Z,35.29
2023-04-11T00:04:15.373Z,35.60
2023-04-11T00:06:43.856Z,35.29
2023-04-11T00:09:13.174Z,35.36
2023-04-11T00:11:41.240Z,35.18
2023-04-11T00:14:10.963Z,35.35
2023-04-11T00:16:39.694Z,35.28
2023-04-11T00:19:09.654Z,35.26
2023-04-11T00:21:40.221Z,35.26
2023-04-11T00:24:09.012Z,35.35
2023-04-11T00:26:37.077Z,35.27
2023-04-11T00:29:05.216Z,35.33
2023-04-11T00:31:34.697Z,35.28
2023-04-11T00:34:02.801Z,35.38
2023-04-11T00:36:31.969Z,35.31
2023-04-11T00:39:01.385Z,35.37
2023-04-11T00:41:29.476Z,35.39
2023-04-11T00:43:57.776Z,35.39
2023-04-11T00:46:26.505Z,35.35
2023-04-11T00:48:56.145Z,35.35
2023-04-11T00:51:24.446Z,35.24
2023-04-11T00:53:52.588Z,35.32
2023-04-11T00:56:20.907Z,35.41
2023-04-11T00:58:49.519Z,35.37
2023-04-11T01:01:20.048Z,35.37
2023-04-11T01:03:48.444Z,35.39
2023-04-11T01:06:21.052Z,35.31
2023-04-11T01:08:49.252Z,35.39
2023-04-11T01:11:20.303Z,35.52
2023-04-11T01:13:49.535Z,35.35
2023-04-11T01:16:21.530Z,35.38
2023-04-11T01:18:49.997Z,35.35
2023-04-11T01:21:20.919Z,35.43
2023-04-11T01:23:52.767Z,35.47
2023-04-11T01:26:21.197Z,35.44
2023-04-11T01:28:49.296Z,35.32
2023-04-11T01:31:17.483Z,35.45
2023-04-11T01:33:45.899Z,35.45
2023-04-11T01:36:14.223Z,35.43
2023-04-11T01:38:42.427Z,35.40
2023-04-11T01:41:12.118Z,35.49
2023-04-11T01:43:40.467Z,35.43
2023-04-11T01:46:09.670Z,35.52
2023-04-11T01:48:38.671Z,35.42
2023-04-11T01:51:07.731Z,35.51
2023-04-11T01:53:35.839Z,35.52
2023-04-11T01:56:03.970Z,35.44
2023-04-11T01:58:33.473Z,35.42
2023-04-11T02:01:01.949Z,35.45
2023-04-11T02:03:30.350Z,35.40
2023-04-11T02:05:58.723Z,35.48
2023-04-11T02:08:26.929Z,35.51
2023-04-11T02:10:55.030Z,35.53
2023-04-11T02:13:23.180Z,35.50
2023-04-11T02:15:52.810Z,35.45
2023-04-11T02:18:21.111Z,35.46
2023-04-11T02:20:50.257Z,35.52
2023-04-11T02:23:18.358Z,35.64
2023-04-11T02:25:46.385Z,35.49
2023-04-11T02:28:14.412Z,35.52
2023-04-11T02:30:42.441Z,35.51
2023-04-11T02:33:12.073Z,35.53
2023-04-11T02:35:40.096Z,35.43
2023-04-11T02:38:08.247Z,35.43
2023-04-11T02:40:36.265Z,35.38
2023-04-11T02:43:04.274Z,35.60
2023-04-11T02:45:32.499Z,35.56
2023-04-11T02:48:00.803Z,35.62
2023-04-11T02:50:30.227Z,35.57
2023-04-11T02:52:58.315Z,35.57
2023-04-11T02:55:27.155Z,35.67
2023-04-11T02:57:55.378Z,35.60
2023-04-11T03:00:23.416Z,35.73
2023-04-11T03:02:51.569Z,35.60
2023-04-11T03:05:20.767Z,35.59
2023-04-11T03:07:50.200Z,35.69
2023-04-11T03:10:18.315Z,35.77
2023-04-11T03:12:46.356Z,35.58
2023-04-11T03:15:15.673Z,35.63
2023-04-11T03:17:43.781Z,35.55
2023-04-11T03:20:13.780Z,35.75
2023-04-11T03:22:41.918Z,35.55
2023-04-11T03:25:11.682Z,35.59
2023-04-11T03:27:39.688Z,35.65
2023-04-11T03:30:09.150Z,35.53
2023-04-11T03:32:37.273Z,35.63
2023-04-11T03:35:05.751Z,35.65
2023-04-11T03:37:33.823Z,35.67
2023-04-11T03:40:01.862Z,35.59
2023-04-11T03:42:31.341Z,35.57
2023-04-11T03:44:59.355Z,35.68
2023-04-11T03:47:27.426Z,35.57
2023-04-11T03:49:55.459Z,35.70
2023-04-11T03:52:24.161Z,35.60
2023-04-11T03:54:52.144Z,35.71
2023-04-11T03:57:20.161Z,35.62
2023-04-11T03:59:49.522Z,35.66
2023-04-11T04:02:17.715Z,35.66
2023-04-11T04:04:48.775Z,35.64
2023-04-11T04:07:18.164Z,35.73
2023-04-11T04:09:46.276Z,35.69
2023-04-11T04:12:14.323Z,35.66
2023-04-11T04:14:42.321Z,35.63
2023-04-11T04:17:13.510Z,35.69
2023-04-11T04:19:41.804Z,35.61
2023-04-11T04:22:12.324Z,35.64
2023-04-11T04:24:42.208Z,35.73
2023-04-11T04:27:10.518Z,35.70
2023-04-11T04:29:39.581Z,35.82
2023-04-11T04:32:11.383Z,35.57
2023-04-11T04:34:46.894Z,35.74
2023-04-11T04:37:21.968Z,35.79
2023-04-11T04:39:54.201Z,35.82
2023-04-11T04:42:23.981Z,35.78
2023-04-11T04:44:52.804Z,35.76
2023-04-11T04:47:22.731Z,35.71
2023-04-11T04:49:56.358Z,35.80
2023-04-11T04:52:25.761Z,35.77
2023-04-11T04:54:58.051Z,35.73
2023-04-11T04:57:27.209Z,35.83
2023-04-11T04:59:55.726Z,35.73
2023-04-11T05:02:25.557Z,35.79
2023-04-11T05:04:55.980Z,35.80
2023-04-11T05:07:24.133Z,35.81
2023-04-11T05:09:52.241Z,35.76
2023-04-11T05:12:26.506Z,35.77
2023-04-11T05:14:56.832Z,35.85
2023-04-11T05:17:25.597Z,35.88
2023-04-11T05:19:55.709Z,35.79
2023-04-11T05:22:23.853Z,35.86
2023-04-11T05:24:51.946Z,35.84
2023-04-11T05:27:19.999Z,35.92
2023-04-11T05:29:48.051Z,35.87
2023-04-11T05:32:16.073Z,35.98
2023-04-11T05:34:57.267Z,35.92
2023-04-11T05:37:26.695Z,36.18
2023-04-11T05:39:56.405Z,35.84
2023-04-11T05:42:24.589Z,35.90
2023-04-11T05:44:52.652Z,35.90
2023-04-11T05:47:20.741Z,35.97
2023-04-11T05:49:49.618Z,35.93
2023-04-11T05:52:19.156Z,35.94
2023-04-11T05:54:47.454Z,36.02
2023-04-11T05:57:17.628Z,36.02
2023-04-11T05:59:49.823Z,35.98
2023-04-11T06:02:18.255Z,36.13
2023-04-11T06:04:46.638Z,35.98
2023-04-11T06:07:14.789Z,36.02
2023-04-11T06:09:44.391Z,36.07
2023-04-11T06:12:12.612Z,36.04
2023-04-11T06:14:41.038Z,36.11
2023-04-11T06:17:09.657Z,36.02
2023-04-11T06:19:38.342Z,36.09
2023-04-11T06:22:06.806Z,36.23
2023-04-11T06:24:38.464Z,36.07
2023-04-11T06:27:10.376Z,36.13
2023-04-11T06:29:38.580Z,36.26
2023-04-11T06:32:07.186Z,36.17
2023-04-11T06:34:35.762Z,36.18
2023-04-11T06:37:03.993Z,36.33
2023-04-11T06:39:32.155Z,36.14
2023-04-11T06:42:00.664Z,36.21
2023-04-11T06:44:30.444Z,36.29
2023-04-11T06:46:59.410Z,36.17
2023-04-11T06:49:28.392Z,36.29
2023-04-11T06:51:56.773Z,36.30
2023-04-11T06:54:24.985Z,36.33
2023-04-11T06:56:53.403Z,36.28
2023-04-11T06:59:22.383Z,36.33
2023-04-11T07:01:53.080Z,36.27
2023-04-11T07:04:23.860Z,36.39
2023-04-11T07:06:52.126Z,36.36
2023-04-11T07:09:20.222Z,36.41
2023-04-11T07:11:48.339Z,36.47
2023-04-11T07:14:16.735Z,36.50
2023-04-11T07:16:44.988Z,36.41
2023-04-11T07:19:14.817Z,36.48
2023-04-11T07:21:42.949Z,36.44
2023-04-11T07:24:13.312Z,36.62
2023-04-11T07:26:42.510Z,36.45
2023-04-11T07:29:13.130Z,36.24
2023-04-11T07:31:45.036Z,36.58
2023-04-11T07:34:14.750Z,36.62
2023-04-11T07:36:42.880Z,36.61
2023-04-11T07:39:12.371Z,36.63
2023-04-11T07:41:40.569Z,36.63
2023-04-11T07:44:09.708Z,36.66
2023-04-11T07:46:37.904Z,36.55
2023-04-11T07:49:06.291Z,36.76
2023-04-11T07:51:35.798Z,36.73
2023-04-11T07:54:04.052Z,36.69
2023-04-11T07:56:32.208Z,36.86
2023-04-11T07:59:01.442Z,36.80
2023-04-11T08:01:29.725Z,36.82
2023-04-11T08:03:58.788Z,36.88
2023-04-11T08:06:29.150Z,36.92
2023-04-11T08:09:01.112Z,36.70
2023-04-11T08:11:29.421Z,36.87
2023-04-11T08:13:57.762Z,36.98
2023-04-11T08:16:26.183Z,37.02
2023-04-11T08:18:54.352Z,36.98
2023-04-11T08:21:23.798Z,36.70
2023-04-11T08:23:51.904Z,36.84
2023-04-11T08:26:21.394Z,36.99
2023-04-11T08:28:49.673Z,36.97
2023-04-11T08:31:17.989Z,36.94
2023-04-11T08:33:46.292Z,36.94
2023-04-11T08:36:14.701Z,37.10
2023-04-11T08:38:42.967Z,37.10
2023-04-11T08:41:11.119Z,37.03
2023-04-11T08:43:47.049Z,37.23
2023-04-11T08:46:15.453Z,37.17
2023-04-11T08:48:45.606Z,37.03
2023-04-11T08:51:18.492Z,37.14
2023-04-11T08:53:47.072Z,37.05
2023-04-11T08:56:20.157Z,36.94
2023-04-11T08:58:51.055Z,37.15
2023-04-11T09:01:30.463Z,37.43
2023-04-11T09:04:02.312Z,37.17
2023-04-11T09:06:31.379Z,37.21
2023-04-11T09:09:00.920Z,37.17
2023-04-11T09:11:29.974Z,37.26
2023-04-11T09:14:09.243Z,37.53
2023-04-11T09:16:42.277Z,37.13
2023-04-11T09:19:25.343Z,37.66
2023-04-11T09:22:00.444Z,37.23
2023-04-11T09:24:29.695Z,37.29
2023-04-11T09:27:11.901Z,37.65
2023-04-11T09:29:45.821Z,37.43
2023-04-11T09:32:32.438Z,37.96
2023-04-11T09:35:15.825Z,37.73
2023-04-11T09:37:55.766Z,37.73
2023-04-11T09:40:25.893Z,37.27
2023-04-11T09:43:00.853Z,37.42
2023-04-11T09:45:38.337Z,37.31
2023-04-11T09:48:16.945Z,37.33
2023-04-11T09:50:45.692Z,37.31
2023-04-11T09:53:17.463Z,37.47
2023-04-11T09:55:46.017Z,37.48
2023-04-11T09:58:14.568Z,37.36
2023-04-11T10:00:46.054Z,37.38
2023-04-11T10:03:20.291Z,37.60
2023-04-11T10:05:49.988Z,37.62
2023-04-11T10:08:28.533Z,37.71
2023-04-11T10:10:56.996Z,37.51
2023-04-11T10:13:50.390Z,38.13
2023-04-11T10:16:23.407Z,37.50
2023-04-11T10:19:25.263Z,38.02
2023-04-11T10:21:54.255Z,37.75
2023-04-11T10:24:24.040Z,37.67
2023-04-11T10:26:53.676Z,37.61
2023-04-11T10:29:49.237Z,38.36
2023-04-11T10:32:26.662Z,37.83
2023-04-11T10:35:31.256Z,38.20
2023-04-11T10:37:59.869Z,37.73
2023-04-11T10:40:28.083Z,37.81
2023-04-11T10:42:57.505Z,37.74
2023-04-11T10:45:27.339Z,37.67
2023-04-11T10:48:10.597Z,37.91
2023-04-11T10:50:45.434Z,37.63
2023-04-11T10:53:41.148Z,38.21
2023-04-11T10:56:09.601Z,37.77
2023-04-11T10:58:40.397Z,37.77
2023-04-11T11:01:32.385Z,38.44
2023-04-11T11:04:08.093Z,37.71
2023-04-11T11:06:46.880Z,37.75
2023-04-11T11:09:23.738Z,37.93
2023-04-11T11:12:06.971Z,38.39
2023-04-11T11:14:35.817Z,37.75
2023-04-11T11:17:04.964Z,37.93
2023-04-11T11:19:35.710Z,37.88
2023-04-11T11:22:05.105Z,37.99
2023-04-11T11:24:33.688Z,37.99
2023-04-11T11:27:02.147Z,37.97
2023-04-11T11:29:36.172Z,38.02
2023-04-11T11:32:05.035Z,37.91
2023-04-11T11:34:39.324Z,38.00
2023-04-11T11:37:07.903Z,37.93
2023-04-11T11:39:36.567Z,37.82
2023-04-11T11:42:04.891Z,38.02
2023-04-11T11:44:34.229Z,37.99
2023-04-11T11:47:03.245Z,38.04
2023-04-11T11:49:46.831Z,38.64
2023-04-11T11:52:31.879Z,37.86
2023-04-11T11:55:00.392Z,38.05
2023-04-11T11:57:28.924Z,38.14
2023-04-11T11:59:57.641Z,37.98
2023-04-11T12:02:30.534Z,38.10
2023-04-11T12:05:01.800Z,38.02
2023-04-11T12:07:35.897Z,38.19
2023-04-11T12:10:08.270Z,38.08
2023-04-11T12:12:37.619Z,38.18
2023-04-11T12:15:11.824Z,38.28
2023-04-11T12:17:40.989Z,38.12
2023-04-11T12:20:12.954Z,38.14
2023-04-11T12:22:41.179Z,38.21
2023-04-11T12:25:10.798Z,38.21
2023-04-11T12:27:40.050Z,38.28
2023-04-11T12:30:09.563Z,38.13
2023-04-11T12:32:38.189Z,38.28
2023-04-11T12:35:07.768Z,38.25
2023-04-11T12:37:37.410Z,38.23
2023-04-11T12:40:13.075Z,38.22
2023-04-11T12:42:53.605Z,38.23
2023-04-11T12:45:26.747Z,38.29
2023-04-11T12:47:55.029Z,38.23
2023-04-11T12:50:24.599Z,38.39
2023-04-11T12:52:55.688Z,38.35
2023-04-11T12:55:24.996Z,38.35
2023-04-11T12:57:53.357Z,38.37
2023-04-11T13:00:22.190Z,38.38
2023-04-11T13:02:50.592Z,38.41
2023-04-11T13:05:19.432Z,38.47
2023-04-11T13:07:47.589Z,38.47
2023-04-11T13:10:17.443Z,38.28
2023-04-11T13:12:46.570Z,38.43
2023-04-11T13:15:16.262Z,38.39
2023-04-11T13:17:44.703Z,38.44
2023-04-11T13:20:13.814Z,38.57
2023-04-11T13:22:42.544Z,38.59
2023-04-11T13:25:12.325Z,38.32
2023-04-11T13:27:42.356Z,38.44
2023-04-11T13:30:12.092Z,38.46
2023-04-11T13:32:40.452Z,38.59
2023-04-11T13:35:09.753Z,38.45
2023-04-11T13:37:37.935Z,38.57
2023-04-11T13:40:08.460Z,38.55
2023-04-11T13:42:36.648Z,38.60
2023-04-11T13:45:06.909Z,38.56
2023-04-11T13:47:38.934Z,38.52
2023-04-11T13:50:09.287Z,38.69
2023-04-11T13:52:37.682Z,38.70
2023-04-11T13:55:06.892Z,38.53
2023-04-11T13:57:34.963Z,38.71
2023-04-11T14:00:05.489Z,38.70
2023-04-11T14:02:35.245Z,38.63
2023-04-11T14:05:03.559Z,38.57
2023-04-11T14:07:32.012Z,38.69
2023-04-11T14:10:00.163Z,38.77
2023-04-11T14:12:28.591Z,38.64
2023-04-11T14:14:56.665Z,38.80
2023-04-11T14:17:24.901Z,38.60
2023-04-11T14:19:54.980Z,38.59
2023-04-11T14:22:23.259Z,38.63
2023-04-11T14:24:52.451Z,38.67
2023-04-11T14:27:20.540Z,38.67
2023-04-11T14:29:48.607Z,38.77
2023-04-11T14:32:18.292Z,38.69
2023-04-11T14:34:47.045Z,38.67
2023-04-11T14:37:16.751Z,38.73
2023-04-11T14:39:44.838Z,38.80
2023-04-11T14:42:17.688Z,38.68
2023-04-11T14:44:46.010Z,38.70
2023-04-11T14:47:14.364Z,38.76
2023-04-11T14:49:44.624Z,38.82
2023-04-11T14:52:13.878Z,38.76
2023-04-11T14:54:43.534Z,38.75
2023-04-11T14:57:12.203Z,38.72
2023-04-11T14:59:43.253Z,38.75
2023-04-11T15:02:18.632Z,38.81
2023-04-11T15:04:47.233Z,38.68
2023-04-11T15:07:16.383Z,38.88
2023-04-11T15:09:46.332Z,38.71
2023-04-11T15:12:14.840Z,38.64
2023-04-11T15:14:43.828Z,38.87
2023-04-11T15:17:14.257Z,39.03
2023-04-11T15:19:42.413Z,38.67
2023-04-11T15:22:20.087Z,39.06
2023-04-11T15:24:49.775Z,38.79
2023-04-11T15:27:18.452Z,38.64
2023-04-11T15:29:46.585Z,38.83
2023-04-11T15:32:14.902Z,38.81
2023-04-11T15:34:43.195Z,38.69
2023-04-11T15:37:13.718Z,38.80
2023-04-11T15:39:46.713Z,38.76
2023-04-11T15:42:16.709Z,38.78
2023-04-11T15:44:46.308Z,38.84
2023-04-11T15:47:14.577Z,38.78
2023-04-11T15:49:42.756Z,38.86
2023-04-11T15:52:11.740Z,38.89
2023-04-11T15:54:39.881Z,38.85
2023-04-11T15:57:08.023Z,38.87
2023-04-11T15:59:40.627Z,38.91
2023-04-11T16:02:08.956Z,38.93
2023-04-11T16:04:39.217Z,38.82
2023-04-11T16:07:07.698Z,39.00
2023-04-11T16:09:35.909Z,39.02
2023-04-11T16:12:04.578Z,39.01
2023-04-11T16:14:32.962Z,38.91
2023-04-11T16:17:05.786Z,38.97
2023-04-11T16:19:34.050Z,39.09
2023-04-11T16:22:02.182Z,38.99
2023-04-11T16:24:31.209Z,38.89
2023-04-11T16:26:59.454Z,38.96
2023-04-11T16:29:27.683Z,39.08
2023-04-11T16:31:55.926Z,39.02
2023-04-11T16:34:25.558Z,38.91
2023-04-11T16:36:53.806Z,38.97
2023-04-11T16:39:22.009Z,39.08
2023-04-11T16:41:50.287Z,39.04
2023-04-11T16:44:18.547Z,38.96
2023-04-11T16:46:46.797Z,39.00
2023-04-11T16:49:16.453Z,38.88
2023-04-11T16:51:46.049Z,39.01
2023-04-11T16:54:15.186Z,39.08
2023-04-11T16:56:43.328Z,38.90
2023-04-11T16:59:12.394Z,38.97
2023-04-11T17:01:43.707Z,39.00
2023-04-11T17:04:12.912Z,39.14
2023-04-11T17:06:41.549Z,38.88
2023-04-11T17:09:11.327Z,38.97
2023-04-11T17:11:39.689Z,39.04
2023-04-11T17:14:07.963Z,39.12
2023-04-11T17:16:37.726Z,38.99
2023-04-11T17:19:06.305Z,39.10
2023-04-11T17:21:34.517Z,39.02
2023-04-11T17:24:02.636Z,39.09
2023-04-11T17:26:32.161Z,39.00
2023-04-11T17:29:00.427Z,39.03
2023-04-11T17:31:29.434Z,39.10
2023-04-11T17:33:57.799Z,39.01
2023-04-11T17:36:26.201Z,39.01
2023-04-11T17:38:55.047Z,39.16
2023-04-11T17:41:23.320Z,39.09
2023-04-11T17:43:58.284Z,39.22
2023-04-11T17:46:28.469Z,39.28
2023-04-11T17:48:57.185Z,39.08
2023-04-11T17:51:27.583Z,39.16
2023-04-11T17:53:56.864Z,39.20
2023-04-11T17:56:25.663Z,39.13
2023-04-11T17:58:56.330Z,39.08
2023-04-11T18:01:29.471Z,39.04
2023-04-11T18:03:57.894Z,39.17
2023-04-11T18:06:28.107Z,39.12
2023-04-11T18:08:56.769Z,39.11
2023-04-11T18:11:25.160Z,39.16
2023-04-11T18:13:54.969Z,39.06
2023-04-11T18:16:23.535Z,39.15
2023-04-11T18:18:51.572Z,39.15
2023-04-11T18:21:21.982Z,39.16
2023-04-11T18:23:50.538Z,39.16
2023-04-11T18:26:18.677Z,39.25
2023-04-11T18:28:46.774Z,39.22
2023-04-11T18:31:16.608Z,39.17
2023-04-11T18:33:46.822Z,39.09
2023-04-11T18:36:15.934Z,39.21
2023-04-11T18:38:44.317Z,39.26
2023-04-11T18:41:12.523Z,39.22
2023-04-11T18:43:40.975Z,39.20
2023-04-11T18:46:09.728Z,39.25
2023-04-11T18:48:39.593Z,39.21
2023-04-11T18:51:07.821Z,39.20
2023-04-11T18:53:36.821Z,39.39
2023-04-11T18:56:05.250Z,39.24
2023-04-11T18:58:35.196Z,39.18
2023-04-11T19:01:15.658Z,39.26
2023-04-11T19:03:47.013Z,39.20
2023-04-11T19:06:15.683Z,39.21
2023-04-11T19:08:43.853Z,39.12
2023-04-11T19:11:12.060Z,39.13
2023-04-11T19:13:41.124Z,39.15
2023-04-11T19:16:09.517Z,39.25
2023-04-11T19:18:37.692Z,39.15
2023-04-11T19:21:07.856Z,39.18
2023-04-11T19:23:36.043Z,39.16
2023-04-11T19:26:04.226Z,39.17
2023-04-11T19:28:32.439Z,39.24
2023-04-11T19:31:00.654Z,39.13
2023-04-11T19:33:29.381Z,39.08
2023-04-11T19:35:57.657Z,39.12
2023-04-11T19:38:27.373Z,39.17
2023-04-11T19:40:55.842Z,39.17
2023-04-11T19:43:24.045Z,39.15
2023-04-11T19:45:52.348Z,39.08
2023-04-11T19:48:20.527Z,39.18
2023-04-11T19:50:48.614Z,39.12
2023-04-11T19:53:16.970Z,39.14
2023-04-11T19:55:52.073Z,39.36
2023-04-11T19:58:21.597Z,39.11
2023-04-11T20:00:49.899Z,39.11
2023-04-11T20:03:18.310Z,39.15
2023-04-11T20:05:47.323Z,39.11
2023-04-11T20:08:15.495Z,39.20
2023-04-11T20:10:43.599Z,38.81
2023-04-11T20:13:13.049Z,39.12
2023-04-11T20:15:41.116Z,39.27
2023-04-11T20:18:10.342Z,39.08
2023-04-11T20:20:38.600Z,39.10
2023-04-11T20:23:07.257Z,39.12
2023-04-11T20:25:36.166Z,39.15
2023-04-11T20:28:04.218Z,39.22
2023-04-11T20:30:33.863Z,39.10
2023-04-11T20:33:02.032Z,39.46
2023-04-11T20:35:30.129Z,39.18
2023-04-11T20:37:58.363Z,39.17
2023-04-11T20:40:26.421Z,39.17
2023-04-11T20:42:56.475Z,39.17
2023-04-11T20:45:25.937Z,39.03
2023-04-11T20:47:55.504Z,39.06
2023-04-11T20:50:23.642Z,39.23
2023-04-11T20:52:52.543Z,39.23
2023-04-11T20:55:21.052Z,39.19
2023-04-11T20:57:49.386Z,39.13
2023-04-11T21:00:18.641Z,39.09
2023-04-11T21:02:50.049Z,39.19
2023-04-11T21:05:22.073Z,39.19
2023-04-11T21:07:50.209Z,39.08
2023-04-11T21:10:21.062Z,39.15
2023-04-11T21:12:51.749Z,39.11
2023-04-11T21:15:20.660Z,39.11
2023-04-11T21:17:48.999Z,39.05
2023-04-11T21:20:20.741Z,39.04
2023-04-11T21:22:52.941Z,39.14
2023-04-11T21:25:21.301Z,39.07
2023-04-11T21:27:49.913Z,39.12
2023-04-11T21:30:17.944Z,39.10
2023-04-11T21:32:46.239Z,39.11
2023-04-11T21:35:14.392Z,38.96
2023-04-11T21:37:42.534Z,39.13
2023-04-11T21:40:12.805Z,39.06
2023-04-11T21:42:41.044Z,39.09
2023-04-11T21:45:10.070Z,39.11
2023-04-11T21:47:38.170Z,39.16
2023-04-11T21:50:07.091Z,39.19
2023-04-11T21:52:35.147Z,39.11
2023-04-11T21:55:03.182Z,39.04
2023-04-11T21:57:34.850Z,39.16
2023-04-11T22:00:03.781Z,39.12
2023-04-11T22:02:32.044Z,39.21
2023-04-11T22:05:06.612Z,39.06
2023-04-11T22:07:39.544Z,39.14
2023-04-11T22:10:11.738Z,39.10
2023-04-11T22:12:45.765Z,39.06
2023-04-11T22:15:14.221Z,39.02
2023-04-11T22:17:43.801Z,39.07
2023-04-11T22:20:13.032Z,39.16
2023-04-11T22:22:42.149Z,39.15
2023-04-11T22:25:11.719Z,39.12
2023-04-11T22:27:41.278Z,39.11
2023-04-11T22:30:11.203Z,39.02
2023-04-11T22:32:39.438Z,39.13
2023-04-11T22:35:08.384Z,39.02
2023-04-11T22:37:36.552Z,39.00
2023-04-11T22:40:06.279Z,39.04
2023-04-11T22:42:34.808Z,39.17
2023-04-11T22:45:04.473Z,39.02
2023-04-11T22:47:34.448Z,39.04
2023-04-11T22:50:03.778Z,39.01
2023-04-11T22:52:31.959Z,39.01
2023-04-11T22:55:00.034Z,39.16
2023-04-11T22:57:28.129Z,39.31
2023-04-11T22:59:56.230Z,39.00
2023-04-11T23:02:27.516Z,39.04
2023-04-11T23:04:55.809Z,39.01
2023-04-11T23:07:26.073Z,39.11
2023-04-11T23:09:54.155Z,39.15
2023-04-11T23:12:22.255Z,39.03
2023-04-11T23:14:50.474Z,39.14
2023-04-11T23:17:18.612Z,38.98
2023-04-11T23:19:49.335Z,39.14
2023-04-11T23:22:18.480Z,39.04
2023-04-11T23:24:47.029Z,39.07
2023-04-11T23:27:15.057Z,39.01
2023-04-11T23:29:43.069Z,39.10
2023-04-11T23:32:11.219Z,39.01
2023-04-11T23:34:39.822Z,39.19
2023-04-11T23:37:09.378Z,39.07
2023-04-11T23:39:37.912Z,39.17
2023-04-11T23:42:06.320Z,39.12
2023-04-11T23:44:34.512Z,39.10
2023-04-11T23:47:02.558Z,39.07
2023-04-11T23:49:30.577Z,39.11
2023-04-11T23:51:58.609Z,39.13
2023-04-11T23:54:30.285Z,39.05
2023-04-11T23:56:58.626Z,39.13
2023-04-11T23:59:27.212Z,39.07
